createdAt,value
2023-01-29T00:02:26.411Z,103918.91
2023-01-29T00:04:58.711Z,104179.03
2023-01-29T00:07:27.891Z,104179.03
2023-01-29T00:09:55.446Z,104179.03
2023-01-29T00:12:23.083Z,103918.91
2023-01-29T00:14:54.994Z,103918.91
2023-01-29T00:17:25.189Z,104179.03
2023-01-29T00:19:54.818Z,104179.03
2023-01-29T00:22:22.116Z,104179.03
2023-01-29T00:24:49.386Z,104439.13
2023-01-29T00:27:16.907Z,104179.03
2023-01-29T00:29:44.059Z,103918.91
2023-01-29T00:32:12.089Z,103918.91
2023-01-29T00:34:39.403Z,103918.91
2023-01-29T00:37:08.818Z,103918.91
2023-01-29T00:39:47.885Z,103918.91
2023-01-29T00:42:34.508Z,103918.91
2023-01-29T00:45:02.067Z,103918.91
2023-01-29T00:47:33.442Z,103918.91
2023-01-29T00:50:02.280Z,103658.84
2023-01-29T00:52:30.383Z,103658.84
2023-01-29T00:54:59.949Z,103658.84
2023-01-29T00:57:32.044Z,103658.84
2023-01-29T00:59:59.745Z,103658.84
2023-01-29T01:02:45.968Z,103658.84
2023-01-29T01:05:18.314Z,103658.84
2023-01-29T01:07:47.888Z,103658.84
2023-01-29T01:10:21.822Z,103658.84
2023-01-29T01:12:50.754Z,103658.84
2023-01-29T01:15:21.475Z,103398.78
2023-01-29T01:17:54.973Z,103398.78
2023-01-29T01:20:26.257Z,103398.78
2023-01-29T01:22:54.449Z,103398.78
2023-01-29T01:25:25.611Z,103398.78
2023-01-29T01:27:57.808Z,103138.75
2023-01-29T01:30:25.925Z,103138.75
2023-01-29T01:32:55.820Z,102878.72
2023-01-29T01:35:22.976Z,102878.72
2023-01-29T01:37:50.456Z,102878.72
2023-01-29T01:40:22.712Z,102878.72
2023-01-29T01:42:56.919Z,102878.72
2023-01-29T01:45:34.568Z,102878.72
2023-01-29T01:48:13.741Z,102878.72
2023-01-29T01:50:58.577Z,102618.72
2023-01-29T01:53:34.594Z,102358.75
2023-01-29T01:56:09.292Z,102618.72
2023-01-29T01:58:43.417Z,102618.72
2023-01-29T02:01:15.598Z,102878.72
2023-01-29T02:04:09.359Z,102878.72
2023-01-29T02:06:59.423Z,102618.72
2023-01-29T02:09:38.824Z,102358.75
2023-01-29T02:12:12.371Z,102618.72
2023-01-29T02:14:43.365Z,102618.72
2023-01-29T02:17:15.444Z,102618.72
2023-01-29T02:20:06.556Z,102358.75
2023-01-29T02:22:36.685Z,102618.72
2023-01-29T02:25:23.674Z,102358.75
2023-01-29T02:28:10.150Z,102358.75
2023-01-29T02:30:56.326Z,102358.75
2023-01-29T02:33:35.664Z,102358.75
2023-01-29T02:36:05.967Z,102098.78
2023-01-29T02:38:50.881Z,102098.78
2023-01-29T02:41:58.820Z,102098.78
2023-01-29T02:44:38.813Z,102098.78
2023-01-29T02:47:33.644Z,102098.78
2023-01-29T02:50:09.363Z,102098.78
2023-01-29T02:52:56.883Z,102098.78
2023-01-29T02:55:45.593Z,101838.84
2023-01-29T02:58:19.639Z,101578.91
2023-01-29T03:00:49.416Z,101578.91
2023-01-29T03:03:36.028Z,101319.00
2023-01-29T03:06:08.726Z,101578.91
2023-01-29T03:08:43.687Z,101319.00
2023-01-29T03:11:16.525Z,101578.91
2023-01-29T03:13:46.760Z,101578.91
2023-01-29T03:16:31.113Z,101059.13
2023-01-29T03:19:22.230Z,101059.13
2023-01-29T03:22:01.541Z,101319.00
2023-01-29T03:25:05.538Z,101319.00
2023-01-29T03:28:02.839Z,101319.00
2023-01-29T03:30:59.550Z,101319.00
2023-01-29T03:33:54.309Z,101319.00
2023-01-29T03:36:39.684Z,101059.13
2023-01-29T03:39:11.441Z,101059.13
2023-01-29T03:41:42.677Z,101059.13
2023-01-29T03:44:48.944Z,100799.25
2023-01-29T03:47:40.501Z,100799.25
2023-01-29T03:50:20.271Z,100539.41
2023-01-29T03:53:10.481Z,100539.41
2023-01-29T03:56:07.223Z,100279.59
2023-01-29T03:58:37.645Z,100279.59
2023-01-29T04:01:14.594Z,100019.78
2023-01-29T04:03:55.646Z,99760.00
2023-01-29T04:06:27.476Z,99760.00
2023-01-29T04:09:31.752Z,99500.22
2023-01-29T04:12:09.240Z,99240.47
2023-01-29T04:14:40.683Z,99500.22
2023-01-29T04:17:32.853Z,98980.75
2023-01-29T04:20:13.769Z,98721.03
2023-01-29T04:22:46.197Z,98721.03
2023-01-29T04:25:19.391Z,98721.03
2023-01-29T04:28:14.031Z,98461.34
2023-01-29T04:30:45.109Z,98721.03
2023-01-29T04:33:15.084Z,98461.34
2023-01-29T04:35:51.224Z,98461.34
2023-01-29T04:38:37.508Z,97942.03
2023-01-29T04:41:32.072Z,97682.41
2023-01-29T04:44:00.218Z,97682.41
2023-01-29T04:46:33.642Z,97682.41
2023-01-29T04:49:15.495Z,97682.41
2023-01-29T04:52:00.573Z,97942.03
2023-01-29T04:54:36.855Z,97942.03
2023-01-29T04:57:17.600Z,97942.03
2023-01-29T04:59:56.382Z,98201.69
2023-01-29T05:02:32.004Z,98201.69
2023-01-29T05:05:03.834Z,98201.69
2023-01-29T05:07:31.996Z,97942.03
2023-01-29T05:10:04.248Z,97942.03
2023-01-29T05:12:33.015Z,97942.03
2023-01-29T05:15:09.336Z,97942.03
2023-01-29T05:17:36.542Z,97682.41
2023-01-29T05:20:04.121Z,97682.41
2023-01-29T05:22:38.983Z,97942.03
2023-01-29T05:25:23.658Z,97682.41
2023-01-29T05:28:08.273Z,97163.19
2023-01-29T05:30:37.959Z,96644.06
2023-01-29T05:33:12.180Z,96125.00
2023-01-29T05:35:39.647Z,95606.03
2023-01-29T05:38:07.079Z,95606.03
2023-01-29T05:40:34.779Z,95087.13
2023-01-29T05:43:02.082Z,95087.13
2023-01-29T05:45:32.236Z,94827.72
2023-01-29T05:48:00.448Z,94568.31
2023-01-29T05:50:28.047Z,94568.31
2023-01-29T05:53:01.991Z,94308.94
2023-01-29T05:55:32.050Z,94049.59
2023-01-29T05:57:59.394Z,94049.59
2023-01-29T06:00:26.903Z,93790.25
2023-01-29T06:02:57.311Z,93790.25
2023-01-29T06:05:24.694Z,93271.63
2023-01-29T06:07:51.958Z,93271.63
2023-01-29T06:10:21.616Z,93271.63
2023-01-29T06:12:48.803Z,93271.63
2023-01-29T06:15:19.748Z,93271.63
2023-01-29T06:17:49.078Z,93530.91
2023-01-29T06:20:18.682Z,93790.25
2023-01-29T06:22:48.948Z,93530.91
2023-01-29T06:25:19.136Z,93530.91
2023-01-29T06:27:48.652Z,93790.25
2023-01-29T06:30:19.958Z,93530.91
2023-01-29T06:32:47.211Z,93530.91
2023-01-29T06:35:14.631Z,93790.25
2023-01-29T06:37:44.337Z,94049.59
2023-01-29T06:40:12.424Z,94568.31
2023-01-29T06:42:39.560Z,94568.31
2023-01-29T06:45:07.766Z,94827.72
2023-01-29T06:47:37.205Z,94827.72
2023-01-29T06:50:04.830Z,94827.72
2023-01-29T06:52:32.631Z,94827.72
2023-01-29T06:54:59.771Z,95087.13
2023-01-29T06:57:29.706Z,95087.13
2023-01-29T06:59:56.970Z,95346.59
2023-01-29T07:02:26.770Z,94827.72
2023-01-29T07:04:54.222Z,95087.13
2023-01-29T07:07:23.862Z,95087.13
2023-01-29T07:09:51.135Z,94568.31
2023-01-29T07:12:20.797Z,94049.59
2023-01-29T07:14:51.265Z,94568.31
2023-01-29T07:17:21.762Z,94568.31
2023-01-29T07:19:49.059Z,94568.31
2023-01-29T07:22:21.131Z,94308.94
2023-01-29T07:24:48.631Z,94049.59
2023-01-29T07:27:17.966Z,94049.59
2023-01-29T07:29:45.218Z,94568.31
2023-01-29T07:32:12.941Z,95087.13
2023-01-29T07:34:40.671Z,95346.59
2023-01-29T07:37:11.285Z,95606.03
2023-01-29T07:39:38.480Z,95606.03
2023-01-29T07:42:05.634Z,95346.59
2023-01-29T07:44:32.962Z,94827.72
2023-01-29T07:47:00.684Z,95087.13
2023-01-29T07:49:28.111Z,95087.13
2023-01-29T07:51:55.460Z,94568.31
2023-01-29T07:54:22.685Z,94568.31
2023-01-29T07:56:49.797Z,95346.59
2023-01-29T07:59:19.221Z,95606.03
2023-01-29T08:01:46.489Z,95087.13
2023-01-29T08:04:13.641Z,94308.94
2023-01-29T08:06:41.243Z,94308.94
2023-01-29T08:09:08.876Z,94827.72
2023-01-29T08:11:35.990Z,95346.59
2023-01-29T08:14:03.340Z,95346.59
2023-01-29T08:16:31.711Z,95346.59
2023-01-29T08:18:58.822Z,95346.59
2023-01-29T08:21:26.255Z,95087.13
2023-01-29T08:23:56.892Z,95087.13
2023-01-29T08:26:26.226Z,94827.72
2023-01-29T08:28:53.504Z,95087.13
2023-01-29T08:31:21.205Z,94827.72
2023-01-29T08:33:49.143Z,94827.72
2023-01-29T08:36:16.842Z,94827.72
2023-01-29T08:38:43.982Z,94568.31
2023-01-29T08:41:17.231Z,94308.94
2023-01-29T08:43:47.328Z,94049.59
2023-01-29T08:46:14.847Z,94049.59
2023-01-29T08:48:43.661Z,94308.94
2023-01-29T08:51:11.027Z,94049.59
2023-01-29T08:53:38.451Z,93530.91
2023-01-29T08:56:08.298Z,93012.34
2023-01-29T08:58:37.769Z,92493.81
2023-01-29T09:01:13.211Z,92493.81
2023-01-29T09:03:46.842Z,91975.41
2023-01-29T09:06:14.876Z,91716.22
2023-01-29T09:08:44.397Z,91716.22
2023-01-29T09:11:13.772Z,92234.59
2023-01-29T09:13:40.881Z,92753.06
2023-01-29T09:16:09.373Z,93012.34
2023-01-29T09:18:36.922Z,93012.34
2023-01-29T09:21:04.876Z,93012.34
2023-01-29T09:23:32.321Z,92753.06
2023-01-29T09:25:59.782Z,92753.06
2023-01-29T09:28:27.204Z,91975.41
2023-01-29T09:30:54.578Z,91716.22
2023-01-29T09:33:24.719Z,91975.41
2023-01-29T09:35:52.184Z,91457.03
2023-01-29T09:38:19.514Z,91197.91
2023-01-29T09:41:00.391Z,90679.66
2023-01-29T09:43:34.461Z,90420.56
2023-01-29T09:46:15.208Z,90161.50
2023-01-29T09:48:44.181Z,89902.44
2023-01-29T09:51:21.133Z,89643.41
2023-01-29T09:53:58.698Z,89384.41
2023-01-29T09:56:28.883Z,89384.41
2023-01-29T09:59:01.543Z,89384.41
2023-01-29T10:01:38.357Z,89643.41
2023-01-29T10:04:36.580Z,89384.41
2023-01-29T10:07:10.004Z,89643.41
2023-01-29T10:09:37.354Z,89643.41
2023-01-29T10:12:27.573Z,89902.44
2023-01-29T10:15:18.256Z,89643.41
2023-01-29T10:18:05.006Z,90161.50
2023-01-29T10:20:47.338Z,90679.66
2023-01-29T10:23:50.008Z,90938.78
2023-01-29T10:26:23.820Z,91197.91
2023-01-29T10:28:57.245Z,91975.41
2023-01-29T10:31:29.955Z,92753.06
2023-01-29T10:34:25.581Z,93530.91
2023-01-29T10:36:55.217Z,93790.25
2023-01-29T10:39:24.655Z,94308.94
2023-01-29T10:42:20.003Z,94308.94
2023-01-29T10:45:00.780Z,94308.94
2023-01-29T10:47:46.970Z,93790.25
2023-01-29T10:50:33.365Z,93790.25
2023-01-29T10:53:24.612Z,93530.91
2023-01-29T10:56:22.664Z,93012.34
2023-01-29T10:58:55.871Z,93271.63
2023-01-29T11:01:23.681Z,92753.06
2023-01-29T11:04:03.261Z,91975.41
2023-01-29T11:06:34.673Z,90420.56
2023-01-29T11:09:26.332Z,89384.41
2023-01-29T11:12:01.648Z,88607.50
2023-01-29T11:14:42.804Z,87313.03
2023-01-29T11:17:24.483Z,86277.78
2023-01-29T11:19:55.731Z,84984.19
2023-01-29T11:22:25.618Z,83949.66
2023-01-29T11:25:19.154Z,82656.94
2023-01-29T11:27:56.204Z,82139.97
2023-01-29T11:30:30.389Z,81623.09
2023-01-29T11:33:19.034Z,80847.91
2023-01-29T11:36:04.834Z,80847.91
2023-01-29T11:38:32.020Z,80847.91
2023-01-29T11:41:07.774Z,79814.63
2023-01-29T11:43:35.138Z,78781.66
2023-01-29T11:46:15.066Z,77748.97
2023-01-29T11:48:59.049Z,76974.69
2023-01-29T11:51:29.907Z,78265.28
2023-01-29T11:53:59.713Z,81881.53
2023-01-29T11:56:42.646Z,82398.44
2023-01-29T11:59:38.369Z,83173.97
2023-01-29T12:02:26.610Z,83432.50
2023-01-29T12:05:04.217Z,83173.97
2023-01-29T12:07:32.880Z,82656.94
2023-01-29T12:10:00.235Z,82915.44
2023-01-29T12:12:34.550Z,83173.97
2023-01-29T12:15:26.189Z,83432.50
2023-01-29T12:18:06.662Z,83432.50
2023-01-29T12:20:41.071Z,83432.50
2023-01-29T12:23:39.094Z,83432.50
2023-01-29T12:26:19.749Z,83691.06
2023-01-29T12:29:14.370Z,84466.88
2023-01-29T12:31:55.787Z,85242.88
2023-01-29T12:34:46.239Z,85501.56
2023-01-29T12:37:16.196Z,86019.03
2023-01-29T12:39:43.492Z,86277.78
2023-01-29T12:42:49.282Z,86277.78
2023-01-29T12:45:24.816Z,86536.56
2023-01-29T12:48:02.032Z,86277.78
2023-01-29T12:50:59.931Z,85760.28
2023-01-29T12:53:37.670Z,86019.03
2023-01-29T12:56:11.940Z,86019.03
2023-01-29T12:58:48.851Z,86019.03
2023-01-29T13:01:36.623Z,85760.28
2023-01-29T13:04:11.496Z,85501.56
2023-01-29T13:06:54.266Z,85760.28
2023-01-29T13:09:30.307Z,86019.03
2023-01-29T13:12:11.192Z,85760.28
2023-01-29T13:15:00.487Z,85501.56
2023-01-29T13:17:42.798Z,85501.56
2023-01-29T13:20:17.395Z,85760.28
2023-01-29T13:22:47.909Z,85242.88
2023-01-29T13:25:18.175Z,84725.53
2023-01-29T13:27:47.753Z,84208.25
2023-01-29T13:30:31.334Z,84208.25
2023-01-29T13:33:12.069Z,84208.25
2023-01-29T13:35:45.896Z,83949.66
2023-01-29T13:38:25.485Z,83949.66
2023-01-29T13:40:56.730Z,83949.66
2023-01-29T13:43:27.509Z,83691.06
2023-01-29T13:45:54.950Z,83173.97
2023-01-29T13:48:30.877Z,82915.44
2023-01-29T13:51:02.813Z,82915.44
2023-01-29T13:53:40.456Z,82398.44
2023-01-29T13:56:41.825Z,82656.94
2023-01-29T13:59:41.436Z,82656.94
2023-01-29T14:02:25.473Z,81881.53
2023-01-29T14:05:30.599Z,81106.28
2023-01-29T14:08:16.318Z,80847.91
2023-01-29T14:11:07.734Z,80589.56
2023-01-29T14:13:35.861Z,80331.25
2023-01-29T14:16:02.974Z,80072.94
2023-01-29T14:18:33.434Z,79556.34
2023-01-29T14:21:03.536Z,79556.34
2023-01-29T14:23:41.518Z,79298.09
2023-01-29T14:26:43.731Z,78007.13
2023-01-29T14:29:33.800Z,64095.41
2023-01-29T14:32:20.026Z,62039.22
2023-01-29T14:34:49.895Z,59984.28
2023-01-29T14:37:18.684Z,48788.28
2023-01-29T14:40:08.107Z,48056.53
2023-01-29T14:42:56.870Z,51268.66
2023-01-29T14:45:38.063Z,53826.91
2023-01-29T14:48:19.530Z,56391.13
2023-01-29T14:50:51.433Z,58443.91
2023-01-29T14:53:24.864Z,60241.09
2023-01-29T14:56:20.042Z,60754.75
2023-01-29T14:59:02.897Z,61782.28
2023-01-29T15:01:38.366Z,62296.19
2023-01-29T15:04:15.461Z,62810.16
2023-01-29T15:06:49.224Z,63067.16
2023-01-29T15:09:36.847Z,64095.41
2023-01-29T15:12:09.107Z,64866.81
2023-01-29T15:15:02.064Z,65123.97
2023-01-29T15:17:49.456Z,64352.53
2023-01-29T15:20:32.954Z,64095.41
2023-01-29T15:23:03.281Z,63324.19
2023-01-29T15:25:49.653Z,63838.31
2023-01-29T15:28:17.067Z,63581.25
2023-01-29T15:30:45.051Z,63581.25
2023-01-29T15:33:14.405Z,63838.31
2023-01-29T15:35:42.463Z,63838.31
2023-01-29T15:38:20.186Z,63838.31
2023-01-29T15:41:02.164Z,64352.53
2023-01-29T15:43:36.715Z,64352.53
2023-01-29T15:46:20.950Z,64095.41
2023-01-29T15:48:49.570Z,63581.25
2023-01-29T15:51:20.404Z,63581.25
2023-01-29T15:53:47.577Z,63324.19
2023-01-29T15:56:18.326Z,63324.19
2023-01-29T15:58:51.393Z,63581.25
2023-01-29T16:01:18.984Z,63067.16
2023-01-29T16:03:52.459Z,63067.16
2023-01-29T16:06:20.548Z,62810.16
2023-01-29T16:08:51.408Z,63324.19
2023-01-29T16:11:20.388Z,63838.31
2023-01-29T16:13:49.935Z,61525.38
2023-01-29T16:16:27.946Z,55621.66
2023-01-29T16:19:00.348Z,57673.97
2023-01-29T16:21:33.863Z,59727.50
2023-01-29T16:24:09.851Z,61268.47
2023-01-29T16:26:44.512Z,61011.59
2023-01-29T16:29:19.113Z,59214.00
2023-01-29T16:31:48.449Z,59727.50
2023-01-29T16:34:23.940Z,59470.75
2023-01-29T16:36:53.430Z,60241.09
2023-01-29T16:39:48.142Z,61782.28
2023-01-29T16:42:17.401Z,63067.16
2023-01-29T16:44:54.528Z,63838.31
2023-01-29T16:47:36.927Z,64352.53
2023-01-29T16:50:40.551Z,64866.81
2023-01-29T16:53:19.854Z,65638.38
2023-01-29T16:55:49.759Z,65895.59
2023-01-29T16:58:19.068Z,66667.38
2023-01-29T17:00:51.644Z,67696.72
2023-01-29T17:03:24.726Z,68468.91
2023-01-29T17:05:52.505Z,69241.31
2023-01-29T17:08:30.286Z,70786.59
2023-01-29T17:10:58.668Z,70786.59
2023-01-29T17:13:45.939Z,70271.41
2023-01-29T17:16:22.056Z,70528.97
2023-01-29T17:18:49.595Z,71301.84
2023-01-29T17:21:17.449Z,72074.84
2023-01-29T17:23:44.723Z,73105.81
2023-01-29T17:26:14.015Z,74137.09
2023-01-29T17:28:44.844Z,74652.84
2023-01-29T17:31:12.105Z,74652.84
2023-01-29T17:33:45.818Z,75168.66
2023-01-29T17:36:16.245Z,74910.75
2023-01-29T17:38:44.260Z,75426.59
2023-01-29T17:41:21.616Z,75684.56
2023-01-29T17:43:48.972Z,75684.56
2023-01-29T17:46:17.773Z,75684.56
2023-01-29T17:48:49.269Z,75684.56
2023-01-29T17:51:24.932Z,75684.56
2023-01-29T17:53:52.139Z,75684.56
2023-01-29T17:56:27.998Z,75942.56
2023-01-29T17:58:57.153Z,75942.56
2023-01-29T18:01:24.644Z,75942.56
2023-01-29T18:03:52.244Z,75942.56
2023-01-29T18:06:29.789Z,75684.56
2023-01-29T18:08:57.215Z,74910.75
2023-01-29T18:11:25.188Z,74652.84
2023-01-29T18:13:55.521Z,74137.09
2023-01-29T18:16:25.829Z,74137.09
2023-01-29T18:18:53.477Z,73363.59
2023-01-29T18:21:20.874Z,72848.03
2023-01-29T18:23:48.008Z,73105.81
2023-01-29T18:26:18.238Z,73105.81
2023-01-29T18:28:45.677Z,73105.81
2023-01-29T18:31:15.529Z,72590.28
2023-01-29T18:33:43.088Z,72074.84
2023-01-29T18:36:10.206Z,71301.84
2023-01-29T18:38:37.472Z,71044.19
2023-01-29T18:41:10.637Z,71559.47
2023-01-29T18:43:39.704Z,65381.16
2023-01-29T18:46:10.694Z,63838.31
2023-01-29T18:48:42.532Z,65123.97
2023-01-29T18:51:12.786Z,66924.69
2023-01-29T18:53:40.790Z,68726.38
2023-01-29T18:56:09.627Z,70271.41
2023-01-29T18:58:40.503Z,71301.84
2023-01-29T19:01:14.947Z,72332.56
2023-01-29T19:03:42.713Z,72848.03
2023-01-29T19:06:12.162Z,73363.59
2023-01-29T19:08:41.005Z,73621.41
2023-01-29T19:11:12.479Z,73879.22
2023-01-29T19:13:43.042Z,74137.09
2023-01-29T19:16:14.300Z,75426.59
2023-01-29T19:18:44.098Z,76716.63
2023-01-29T19:21:15.928Z,77232.75
2023-01-29T19:23:43.904Z,77232.75
2023-01-29T19:26:13.884Z,75684.56
2023-01-29T19:28:42.710Z,76458.59
2023-01-29T19:31:09.990Z,76974.69
2023-01-29T19:33:39.773Z,78007.13
2023-01-29T19:36:07.610Z,78781.66
2023-01-29T19:38:38.463Z,79298.09
2023-01-29T19:41:06.099Z,79039.88
2023-01-29T19:43:33.866Z,78781.66
2023-01-29T19:46:02.080Z,79039.88
2023-01-29T19:48:29.713Z,78781.66
2023-01-29T19:50:59.241Z,78781.66
2023-01-29T19:53:28.877Z,79814.63
2023-01-29T19:56:07.970Z,80331.25
2023-01-29T19:58:35.813Z,80589.56
2023-01-29T20:01:14.272Z,80589.56
2023-01-29T20:03:47.945Z,81106.28
2023-01-29T20:06:18.751Z,81364.69
2023-01-29T20:08:49.069Z,81364.69
2023-01-29T20:11:18.336Z,81881.53
2023-01-29T20:13:52.303Z,82139.97
2023-01-29T20:16:21.141Z,82139.97
2023-01-29T20:18:50.540Z,82656.94
2023-01-29T20:21:20.720Z,83173.97
2023-01-29T20:23:52.000Z,83173.97
2023-01-29T20:26:20.598Z,83173.97
2023-01-29T20:28:51.909Z,83432.50
2023-01-29T20:31:19.352Z,83432.50
2023-01-29T20:33:49.142Z,83432.50
2023-01-29T20:36:19.152Z,83173.97
2023-01-29T20:38:50.536Z,83173.97
2023-01-29T20:41:19.468Z,83432.50
2023-01-29T20:43:50.987Z,83173.97
2023-01-29T20:46:18.720Z,83432.50
2023-01-29T20:48:53.049Z,83691.06
2023-01-29T20:51:20.611Z,83691.06
2023-01-29T20:53:50.322Z,83691.06
2023-01-29T20:56:18.308Z,83691.06
2023-01-29T20:58:51.900Z,84208.25
2023-01-29T21:01:22.823Z,84208.25
2023-01-29T21:03:50.030Z,84725.53
2023-01-29T21:06:17.525Z,84725.53
2023-01-29T21:08:44.699Z,84466.88
2023-01-29T21:11:16.723Z,84466.88
2023-01-29T21:13:44.082Z,84466.88
2023-01-29T21:16:11.327Z,84725.53
2023-01-29T21:18:40.712Z,84725.53
2023-01-29T21:21:08.937Z,84984.19
2023-01-29T21:23:41.764Z,85501.56
2023-01-29T21:26:09.194Z,85501.56
2023-01-29T21:28:37.071Z,84984.19
2023-01-29T21:31:06.769Z,85242.88
2023-01-29T21:33:35.011Z,84984.19
2023-01-29T21:36:05.113Z,84725.53
2023-01-29T21:38:32.393Z,84725.53
2023-01-29T21:41:01.534Z,84725.53
2023-01-29T21:43:29.220Z,84725.53
2023-01-29T21:45:58.770Z,84984.19
2023-01-29T21:48:29.014Z,84984.19
2023-01-29T21:50:56.467Z,84984.19
2023-01-29T21:53:23.783Z,84466.88
2023-01-29T21:55:58.431Z,84725.53
2023-01-29T21:58:28.967Z,84984.19
2023-01-29T22:01:35.730Z,85501.56
2023-01-29T22:03:47.384Z,85501.56
2023-01-29T22:06:15.775Z,85242.88
2023-01-29T22:08:45.504Z,84984.19
2023-01-29T22:11:12.797Z,84725.53
2023-01-29T22:13:45.605Z,84725.53
2023-01-29T22:16:12.988Z,84725.53
2023-01-29T22:18:40.372Z,84725.53
2023-01-29T22:21:07.738Z,84725.53
2023-01-29T22:23:37.977Z,84725.53
2023-01-29T22:26:06.553Z,84466.88
2023-01-29T22:28:34.422Z,84466.88
2023-01-29T22:31:02.829Z,84725.53
2023-01-29T22:33:30.679Z,84725.53
2023-01-29T22:36:00.697Z,84725.53
2023-01-29T22:38:28.279Z,84725.53
2023-01-29T22:40:57.086Z,84466.88
2023-01-29T22:43:27.026Z,84466.88
2023-01-29T22:45:54.267Z,84208.25
2023-01-29T22:48:23.988Z,84208.25
2023-01-29T22:51:11.706Z,84466.88
2023-01-29T22:53:41.450Z,84208.25
2023-01-29T22:56:09.377Z,84208.25
2023-01-29T22:58:37.445Z,83949.66
2023-01-29T23:01:04.732Z,83949.66
2023-01-29T23:03:32.120Z,83949.66
2023-01-29T23:06:04.486Z,83432.50
2023-01-29T23:08:34.583Z,83173.97
2023-01-29T23:11:15.821Z,82915.44
2023-01-29T23:13:45.635Z,82656.94
2023-01-29T23:16:16.108Z,82915.44
2023-01-29T23:18:48.958Z,82656.94
2023-01-29T23:21:16.714Z,82398.44
2023-01-29T23:23:45.118Z,82139.97
2023-01-29T23:26:35.073Z,81881.53
2023-01-29T23:29:05.547Z,82139.97
2023-01-29T23:31:33.033Z,82398.44
2023-01-29T23:34:00.440Z,82656.94
2023-01-29T23:36:30.833Z,82915.44
2023-01-29T23:38:58.352Z,82915.44
2023-01-29T23:41:25.661Z,82915.44
2023-01-29T23:43:55.246Z,82915.44
2023-01-29T23:46:26.740Z,82398.44
2023-01-29T23:48:54.376Z,82656.94
2023-01-29T23:51:21.589Z,82398.44
2023-01-29T23:53:50.771Z,81881.53
2023-01-29T23:56:19.322Z,81881.53
2023-01-29T23:58:46.770Z,81623.09
